Time;durP1;ratioP1;P1;durP2;ratioP2;P2;SDS_P1;SDS_P2;PMS_P1;PMS_P2;Temp;Humidity;BMP_temperature;BMP_pressure;BME280_temperature;BME280_humidity;BME280_pressure;Samples;Min_cycle;Max_cycle;Signal;HPM_P1;HPM_P2
2023/12/13 00:00:54;;;;;;;1999.90;999.90;;;;;;;;;;5070157;28;20477;-89
2023/12/13 00:03:21;;;;;;;1999.90;999.90;;;;;;;;;;5059211;28;20052;-90
2023/12/13 00:05:47;;;;;;;1999.90;999.90;;;;;;;;;;5062620;28;20053;-90
2023/12/13 00:08:14;;;;;;;1999.90;999.90;;;;;;;;;;5062260;28;20533;-89
2023/12/13 00:10:40;;;;;;;1999.90;999.90;;;;;;;;;;5058357;28;20044;-89
2023/12/13 00:13:07;;;;;;;1999.90;999.90;;;;;;;;;;5064057;28;20048;-89
2023/12/13 00:15:33;;;;;;;1999.90;999.90;;;;;;;;;;5063088;28;20430;-90
2023/12/13 00:18:01;;;;;;;1999.90;999.90;;;;;;;;;;5060233;28;20063;-91
2023/12/13 00:20:27;;;;;;;1999.90;999.90;;;;;;;;;;5066549;28;20040;-89
2023/12/13 00:22:55;;;;;;;1999.90;999.90;;;;;;;;;;5065425;28;20676;-90
2023/12/13 00:25:21;;;;;;;1999.90;999.90;;;;;;;;;;5063112;28;20527;-89
2023/12/13 00:27:48;;;;;;;1999.90;999.90;;;;;;;;;;5060108;28;20083;-90
2023/12/13 00:30:15;;;;;;;1999.90;999.90;;;;;;;;;;5060100;28;20052;-90
2023/12/13 00:32:41;;;;;;;1999.90;999.90;;;;;;;;;;5060001;28;20052;-90
2023/12/13 00:35:10;;;;;;;1999.90;999.90;;;;;;;;;;5066388;28;20060;-89
2023/12/13 00:37:36;;;;;;;1999.90;999.90;;;;;;;;;;5059448;28;20052;-89
2023/12/13 00:40:05;;;;;;;1999.90;999.90;;;;;;;;;;5064430;28;20048;-89
2023/12/13 00:42:32;;;;;;;1999.90;999.90;;;;;;;;;;5071902;28;20098;-92
2023/12/13 00:44:58;;;;;;;1999.90;999.90;;;;;;;;;;5064763;28;20055;-90
2023/12/13 00:47:25;;;;;;;1999.90;999.90;;;;;;;;;;5066179;28;20048;-90
2023/12/13 00:49:52;;;;;;;1999.90;999.90;;;;;;;;;;5064641;28;20052;-91
2023/12/13 00:52:20;;;;;;;1999.90;999.90;;;;;;;;;;5065895;28;20163;-90
2023/12/13 00:54:46;;;;;;;1999.90;999.90;;;;;;;;;;5062437;28;20063;-91
2023/12/13 00:57:13;;;;;;;1999.90;999.90;;;;;;;;;;5066593;28;20051;-90
2023/12/13 00:59:40;;;;;;;1999.90;999.90;;;;;;;;;;5066307;28;20056;-90
2023/12/13 01:02:07;;;;;;;1999.90;999.90;;;;;;;;;;5065474;28;20053;-90
2023/12/13 01:04:34;;;;;;;1999.90;999.90;;;;;;;;;;5066263;28;20045;-90
2023/12/13 01:07:01;;;;;;;1999.90;999.90;;;;;;;;;;5067421;28;20067;-90
2023/12/13 01:09:29;;;;;;;1999.90;999.90;;;;;;;;;;5064539;28;20041;-89
2023/12/13 01:11:55;;;;;;;1999.90;999.90;;;;;;;;;;5068351;28;20467;-91
2023/12/13 01:14:22;;;;;;;1999.90;999.90;;;;;;;;;;5065369;28;20048;-89
2023/12/13 01:16:48;;;;;;;1999.90;999.90;;;;;;;;;;5059696;28;20052;-90
2023/12/13 01:19:15;;;;;;;1999.90;999.90;;;;;;;;;;5067811;28;20043;-90
2023/12/13 01:21:41;;;;;;;1999.90;999.90;;;;;;;;;;5061356;28;20052;-90
2023/12/13 01:24:08;;;;;;;1999.90;999.90;;;;;;;;;;5067331;28;20052;-90
2023/12/13 01:26:36;;;;;;;1999.90;999.90;;;;;;;;;;5063539;28;20040;-90
2023/12/13 01:29:02;;;;;;;1999.90;999.90;;;;;;;;;;5064561;28;20051;-90
2023/12/13 01:31:29;;;;;;;1999.90;999.90;;;;;;;;;;5063394;28;20044;-90
2023/12/13 01:33:55;;;;;;;1999.90;999.90;;;;;;;;;;5063674;28;20055;-89
2023/12/13 01:36:22;;;;;;;1999.90;999.90;;;;;;;;;;5067313;28;20505;-90
2023/12/13 01:38:48;;;;;;;1999.90;999.90;;;;;;;;;;5063643;28;20053;-90
2023/12/13 01:41:16;;;;;;;1999.90;999.90;;;;;;;;;;5064069;28;20051;-90
2023/12/13 01:43:44;;;;;;;1999.90;999.90;;;;;;;;;;5063801;28;20052;-90
2023/12/13 01:46:11;;;;;;;1999.90;999.90;;;;;;;;;;5062503;28;20056;-89
2023/12/13 01:48:38;;;;;;;1999.90;999.90;;;;;;;;;;5066318;28;20052;-91
2023/12/13 01:51:05;;;;;;;1999.90;999.90;;;;;;;;;;5062244;28;20386;-89
2023/12/13 01:53:34;;;;;;;1999.90;999.90;;;;;;;;;;5064118;28;20505;-89
2023/12/13 01:56:00;;;;;;;1999.90;999.90;;;;;;;;;;5062742;28;20052;-90
2023/12/13 01:58:28;;;;;;;1999.90;999.90;;;;;;;;;;5063546;28;20045;-90
2023/12/13 02:00:56;;;;;;;1999.90;999.90;;;;;;;;;;5068084;28;20047;-90
2023/12/13 02:03:23;;;;;;;1999.90;999.90;;;;;;;;;;5064079;28;20049;-90
2023/12/13 02:05:51;;;;;;;1999.90;999.90;;;;;;;;;;5066328;28;20044;-91
2023/12/13 02:08:18;;;;;;;1999.90;999.90;;;;;;;;;;5062670;28;20448;-90
2023/12/13 02:10:45;;;;;;;1999.90;999.90;;;;;;;;;;5062617;28;20052;-90
2023/12/13 02:13:12;;;;;;;1999.90;999.90;;;;;;;;;;5065261;28;20036;-90
2023/12/13 02:15:38;;;;;;;1999.90;999.90;;;;;;;;;;5063181;28;20045;-91
2023/12/13 02:18:08;;;;;;;1999.90;999.90;;;;;;;;;;5067749;28;20059;-90
2023/12/13 02:20:34;;;;;;;1999.90;999.90;;;;;;;;;;5067622;28;20564;-91
2023/12/13 02:23:03;;;;;;;1999.90;999.90;;;;;;;;;;5062650;28;20078;-90
2023/12/13 02:25:34;;;;;;;1999.90;999.90;;;;;;;;;;5067066;28;20041;-88
2023/12/13 02:28:01;;;;;;;1999.90;999.90;;;;;;;;;;5062161;28;20049;-89
2023/12/13 02:30:28;;;;;;;1999.90;999.90;;;;;;;;;;5057642;28;20051;-89
2023/12/13 02:32:54;;;;;;;1999.90;999.90;;;;;;;;;;5058937;28;20047;-89
2023/12/13 02:35:21;;;;;;;1999.90;999.90;;;;;;;;;;5063284;28;20072;-89
2023/12/13 02:37:49;;;;;;;1999.90;999.90;;;;;;;;;;5057263;28;20474;-89
2023/12/13 02:40:17;;;;;;;1999.90;999.90;;;;;;;;;;5063152;28;20040;-90
2023/12/13 02:42:44;;;;;;;1999.90;999.90;;;;;;;;;;5059709;28;20052;-89
2023/12/13 02:45:12;;;;;;;1999.90;999.90;;;;;;;;;;5064276;28;20080;-90
2023/12/13 02:47:41;;;;;;;1999.90;999.90;;;;;;;;;;5063472;28;20055;-89
2023/12/13 02:50:08;;;;;;;1999.90;999.90;;;;;;;;;;5060987;28;20501;-89
2023/12/13 02:52:35;;;;;;;1999.90;999.90;;;;;;;;;;5065608;28;20055;-89
2023/12/13 02:55:02;;;;;;;1999.90;999.90;;;;;;;;;;5066999;28;20048;-89
2023/12/13 02:57:30;;;;;;;1999.90;999.90;;;;;;;;;;5057667;28;20056;-89
2023/12/13 02:59:56;;;;;;;1999.90;999.90;;;;;;;;;;5063258;28;20044;-89
2023/12/13 03:02:23;;;;;;;1999.90;999.90;;;;;;;;;;5061661;28;20044;-89
2023/12/13 03:04:49;;;;;;;1999.90;999.90;;;;;;;;;;5069313;28;20049;-89
2023/12/13 03:07:16;;;;;;;1999.90;999.90;;;;;;;;;;5064425;28;20040;-89
2023/12/13 03:09:43;;;;;;;1999.90;999.90;;;;;;;;;;5075863;28;20037;-89
2023/12/13 03:12:09;;;;;;;1999.90;999.90;;;;;;;;;;5075351;28;20105;-89
2023/12/13 03:14:37;;;;;;;1999.90;999.90;;;;;;;;;;5072768;28;20126;-89
2023/12/13 03:17:04;;;;;;;1999.90;999.90;;;;;;;;;;5069053;28;20054;-88
2023/12/13 03:19:30;;;;;;;1999.90;999.90;;;;;;;;;;5071438;28;20059;-88
2023/12/13 03:21:57;;;;;;;1999.90;999.90;;;;;;;;;;5071898;28;20048;-88
2023/12/13 03:24:24;;;;;;;1999.90;999.90;;;;;;;;;;5060936;28;20048;-89
2023/12/13 03:26:50;;;;;;;1999.90;999.90;;;;;;;;;;5066225;28;20041;-88
2023/12/13 03:29:17;;;;;;;1999.90;999.90;;;;;;;;;;5059644;28;20045;-88
2023/12/13 03:31:45;;;;;;;1999.90;999.90;;;;;;;;;;5065505;28;20133;-88
2023/12/13 03:34:14;;;;;;;1999.90;999.90;;;;;;;;;;5061666;28;20052;-90
2023/12/13 03:36:40;;;;;;;1999.90;999.90;;;;;;;;;;5058835;28;20375;-89
2023/12/13 03:39:07;;;;;;;1999.90;999.90;;;;;;;;;;5065418;28;20055;-90
2023/12/13 03:41:34;;;;;;;1999.90;999.90;;;;;;;;;;5061236;28;20041;-89
2023/12/13 03:44:01;;;;;;;1999.90;999.90;;;;;;;;;;5065675;28;20051;-88
2023/12/13 03:46:27;;;;;;;1999.90;999.90;;;;;;;;;;5066607;28;20500;-89
2023/12/13 03:48:55;;;;;;;1999.90;999.90;;;;;;;;;;5060103;28;20114;-89
2023/12/13 03:51:22;;;;;;;1999.90;999.90;;;;;;;;;;5062155;28;20075;-88
2023/12/13 03:53:48;;;;;;;1999.90;999.90;;;;;;;;;;5061287;28;20060;-88
2023/12/13 03:56:15;;;;;;;1999.90;999.90;;;;;;;;;;5060761;28;20045;-88
2023/12/13 03:58:41;;;;;;;1999.90;999.90;;;;;;;;;;5064016;28;20071;-88
2023/12/13 04:01:08;;;;;;;1999.90;999.90;;;;;;;;;;5061852;28;20049;-88
2023/12/13 04:03:35;;;;;;;1999.90;999.90;;;;;;;;;;5065555;28;20052;-88
2023/12/13 04:06:04;;;;;;;1999.90;999.90;;;;;;;;;;5067467;28;20064;-88
2023/12/13 04:08:30;;;;;;;1999.90;999.90;;;;;;;;;;5065846;28;20611;-88
2023/12/13 04:10:57;;;;;;;1999.90;999.90;;;;;;;;;;5061396;28;20045;-88
2023/12/13 04:13:23;;;;;;;1999.90;999.90;;;;;;;;;;5061696;28;20048;-90
2023/12/13 04:15:50;;;;;;;1999.90;999.90;;;;;;;;;;5068310;28;20044;-89
2023/12/13 04:18:16;;;;;;;1999.90;999.90;;;;;;;;;;5057448;28;20060;-89
2023/12/13 04:20:43;;;;;;;1999.90;999.90;;;;;;;;;;5065606;28;20045;-89
2023/12/13 04:23:11;;;;;;;1999.90;999.90;;;;;;;;;;5060925;28;20048;-89
2023/12/13 04:25:38;;;;;;;1999.90;999.90;;;;;;;;;;5061412;28;20525;-88
2023/12/13 04:28:04;;;;;;;1999.90;999.90;;;;;;;;;;5060830;28;20044;-88
2023/12/13 04:30:31;;;;;;;1999.90;999.90;;;;;;;;;;5059803;28;20045;-88
2023/12/13 04:32:58;;;;;;;1999.90;999.90;;;;;;;;;;5064325;28;20048;-89
2023/12/13 04:35:24;;;;;;;1999.90;999.90;;;;;;;;;;5057149;28;20079;-88
2023/12/13 04:37:51;;;;;;;1999.90;999.90;;;;;;;;;;5061707;28;20056;-90
2023/12/13 04:40:19;;;;;;;1999.90;999.90;;;;;;;;;;5062211;28;20055;-88
2023/12/13 04:42:45;;;;;;;1999.90;999.90;;;;;;;;;;5062646;28;20048;-88
2023/12/13 04:45:12;;;;;;;1999.90;999.90;;;;;;;;;;5055868;28;20060;-88
2023/12/13 04:47:38;;;;;;;1999.90;999.90;;;;;;;;;;5059660;28;20048;-89
2023/12/13 04:50:06;;;;;;;1999.90;999.90;;;;;;;;;;5055997;28;20049;-87
2023/12/13 04:52:32;;;;;;;1999.90;999.90;;;;;;;;;;5062261;28;20040;-88
2023/12/13 04:54:59;;;;;;;1999.90;999.90;;;;;;;;;;5061985;28;20049;-87
2023/12/13 04:57:27;;;;;;;1999.90;999.90;;;;;;;;;;5054031;28;20052;-88
2023/12/13 04:59:53;;;;;;;1999.90;999.90;;;;;;;;;;5053804;28;20044;-88
2023/12/13 05:02:20;;;;;;;1999.90;999.90;;;;;;;;;;5063938;28;20048;-88
2023/12/13 05:04:47;;;;;;;1999.90;999.90;;;;;;;;;;5055522;28;20513;-88
2023/12/13 05:07:13;;;;;;;1999.90;999.90;;;;;;;;;;5064282;28;20048;-88
2023/12/13 05:09:40;;;;;;;1999.90;999.90;;;;;;;;;;5059547;28;20490;-88
2023/12/13 05:12:07;;;;;;;1999.90;999.90;;;;;;;;;;5059813;28;20111;-88
2023/12/13 05:14:35;;;;;;;1999.90;999.90;;;;;;;;;;5060614;28;20074;-88
2023/12/13 05:17:02;;;;;;;1999.90;999.90;;;;;;;;;;5061370;28;20040;-89
2023/12/13 05:19:28;;;;;;;1999.90;999.90;;;;;;;;;;5061185;28;20132;-88
2023/12/13 05:21:55;;;;;;;1999.90;999.90;;;;;;;;;;5064221;28;20056;-88
2023/12/13 05:24:21;;;;;;;1999.90;999.90;;;;;;;;;;5065272;28;20036;-88
2023/12/13 05:26:48;;;;;;;1999.90;999.90;;;;;;;;;;5063577;28;20420;-88
2023/12/13 05:29:14;;;;;;;1999.90;999.90;;;;;;;;;;5063085;28;20049;-89
2023/12/13 05:31:42;;;;;;;1999.90;999.90;;;;;;;;;;5064243;28;20045;-89
2023/12/13 05:34:09;;;;;;;1999.90;999.90;;;;;;;;;;5062628;28;20051;-88
2023/12/13 05:36:35;;;;;;;1999.90;999.90;;;;;;;;;;5062657;28;20064;-88
2023/12/13 05:39:02;;;;;;;1999.90;999.90;;;;;;;;;;5063812;28;20052;-89
2023/12/13 05:41:34;;;;;;;1999.90;999.90;;;;;;;;;;5064926;28;20044;-89
2023/12/13 05:44:00;;;;;;;1999.90;999.90;;;;;;;;;;5063000;28;20052;-90
2023/12/13 05:46:33;;;;;;;1999.90;999.90;;;;;;;;;;5060127;28;20049;-88
2023/12/13 05:49:02;;;;;;;1999.90;999.90;;;;;;;;;;5063123;28;20055;-89
2023/12/13 05:51:28;;;;;;;1999.90;999.90;;;;;;;;;;5062758;28;20561;-89
2023/12/13 05:53:56;;;;;;;1999.90;999.90;;;;;;;;;;5066173;28;20049;-88
2023/12/13 05:56:23;;;;;;;1999.90;999.90;;;;;;;;;;5063334;28;20040;-89
2023/12/13 05:58:49;;;;;;;1999.90;999.90;;;;;;;;;;5063688;28;20052;-87
2023/12/13 06:01:16;;;;;;;1999.90;999.90;;;;;;;;;;5065137;28;20405;-88
2023/12/13 06:03:42;;;;;;;1999.90;999.90;;;;;;;;;;5062016;28;20437;-87
2023/12/13 06:06:10;;;;;;;1999.90;999.90;;;;;;;;;;5068168;28;20051;-88
2023/12/13 06:08:37;;;;;;;1999.90;999.90;;;;;;;;;;5063491;28;20049;-88
2023/12/13 06:11:03;;;;;;;1999.90;999.90;;;;;;;;;;5067858;28;20080;-89
2023/12/13 06:13:30;;;;;;;1999.90;999.90;;;;;;;;;;5060832;28;20056;-87
2023/12/13 06:15:56;;;;;;;1999.90;999.90;;;;;;;;;;5064065;28;20056;-89
2023/12/13 06:18:23;;;;;;;1999.90;999.90;;;;;;;;;;5059636;28;20059;-87
2023/12/13 06:20:51;;;;;;;1999.90;999.90;;;;;;;;;;5064546;28;20135;-88
2023/12/13 06:23:19;;;;;;;1999.90;999.90;;;;;;;;;;5063595;28;20529;-87
2023/12/13 06:25:45;;;;;;;1999.90;999.90;;;;;;;;;;5071922;28;20378;-88
2023/12/13 06:28:12;;;;;;;1999.90;999.90;;;;;;;;;;5063260;28;20055;-89
2023/12/13 06:30:38;;;;;;;1999.90;999.90;;;;;;;;;;5066778;28;20059;-89
2023/12/13 06:33:05;;;;;;;1999.90;999.90;;;;;;;;;;5062675;28;20136;-88
2023/12/13 06:35:31;;;;;;;1999.90;999.90;;;;;;;;;;5062519;28;20466;-89
2023/12/13 06:37:58;;;;;;;1999.90;999.90;;;;;;;;;;5065288;28;20049;-89
2023/12/13 06:40:26;;;;;;;1999.90;999.90;;;;;;;;;;5063864;28;20480;-89
2023/12/13 06:42:52;;;;;;;1999.90;999.90;;;;;;;;;;5061926;28;20045;-90
2023/12/13 06:45:20;;;;;;;1999.90;999.90;;;;;;;;;;5068509;28;20048;-90
2023/12/13 06:47:48;;;;;;;1999.90;999.90;;;;;;;;;;5070057;28;20519;-86
2023/12/13 06:50:15;;;;;;;1999.90;999.90;;;;;;;;;;5064198;28;20107;-89
2023/12/13 06:52:41;;;;;;;1999.90;999.90;;;;;;;;;;5064207;28;20044;-89
2023/12/13 06:55:09;;;;;;;1999.90;999.90;;;;;;;;;;5056443;28;20057;-88
2023/12/13 06:57:37;;;;;;;1999.90;999.90;;;;;;;;;;5065687;28;20469;-87
2023/12/13 07:00:04;;;;;;;1999.90;999.90;;;;;;;;;;5064179;28;20055;-89
2023/12/13 07:02:31;;;;;;;1999.90;999.90;;;;;;;;;;5068454;28;20063;-90
2023/12/13 07:04:58;;;;;;;1999.90;999.90;;;;;;;;;;5060633;28;20045;-89
2023/12/13 07:07:25;;;;;;;1999.90;999.90;;;;;;;;;;5059049;28;20132;-88
2023/12/13 07:09:52;;;;;;;1999.90;999.90;;;;;;;;;;5063723;28;20505;-89
2023/12/13 07:12:18;;;;;;;1999.90;999.90;;;;;;;;;;5060330;28;20195;-88
2023/12/13 07:14:46;;;;;;;1999.90;999.90;;;;;;;;;;5064031;28;20048;-88
2023/12/13 07:17:13;;;;;;;1999.90;999.90;;;;;;;;;;5059206;28;20049;-88
2023/12/13 07:19:39;;;;;;;1999.90;999.90;;;;;;;;;;5062744;28;20041;-88
2023/12/13 07:22:06;;;;;;;1999.90;999.90;;;;;;;;;;5061054;28;20044;-88
2023/12/13 07:24:32;;;;;;;1999.90;999.90;;;;;;;;;;5061335;28;20049;-89
2023/12/13 07:26:59;;;;;;;1999.90;999.90;;;;;;;;;;5061683;28;20043;-88
2023/12/13 07:29:25;;;;;;;1999.90;999.90;;;;;;;;;;5062880;28;20477;-88
2023/12/13 07:31:53;;;;;;;1999.90;999.90;;;;;;;;;;5064961;28;20048;-87
2023/12/13 07:34:20;;;;;;;1999.90;999.90;;;;;;;;;;5063539;28;20455;-88
2023/12/13 07:36:48;;;;;;;1999.90;999.90;;;;;;;;;;5059180;28;20053;-88
2023/12/13 07:39:15;;;;;;;1999.90;999.90;;;;;;;;;;5062310;28;20052;-89
2023/12/13 07:41:42;;;;;;;1999.90;999.90;;;;;;;;;;5066175;28;20461;-87
2023/12/13 07:44:08;;;;;;;1999.90;999.90;;;;;;;;;;5058584;28;20063;-87
2023/12/13 07:46:36;;;;;;;1999.90;999.90;;;;;;;;;;5065622;28;20053;-88
2023/12/13 07:49:04;;;;;;;1999.90;999.90;;;;;;;;;;5060365;28;20484;-87
2023/12/13 07:51:30;;;;;;;1999.90;999.90;;;;;;;;;;5056519;28;20753;-88
2023/12/13 07:53:58;;;;;;;1999.90;999.90;;;;;;;;;;5064198;28;20103;-88
2023/12/13 07:56:25;;;;;;;1999.90;999.90;;;;;;;;;;5063173;28;20448;-87
2023/12/13 07:58:52;;;;;;;1999.90;999.90;;;;;;;;;;5059400;28;20049;-87
2023/12/13 08:01:18;;;;;;;1999.90;999.90;;;;;;;;;;5060271;28;20045;-89
2023/12/13 08:03:45;;;;;;;1999.90;999.90;;;;;;;;;;5063822;28;20056;-87
2023/12/13 08:06:13;;;;;;;1999.90;999.90;;;;;;;;;;5060653;28;20040;-88
2023/12/13 08:08:40;;;;;;;1999.90;999.90;;;;;;;;;;5061835;28;20493;-88
2023/12/13 08:11:07;;;;;;;1999.90;999.90;;;;;;;;;;5063325;28;20041;-87
2023/12/13 08:13:34;;;;;;;1999.90;999.90;;;;;;;;;;5065005;28;20503;-87
2023/12/13 08:16:00;;;;;;;1999.90;999.90;;;;;;;;;;5063508;28;20405;-88
2023/12/13 08:18:27;;;;;;;1999.90;999.90;;;;;;;;;;5060286;28;20059;-87
2023/12/13 08:20:54;;;;;;;1999.90;999.90;;;;;;;;;;5057255;28;20136;-88
2023/12/13 08:23:21;;;;;;;1999.90;999.90;;;;;;;;;;5059607;28;20045;-87
2023/12/13 08:25:48;;;;;;;1999.90;999.90;;;;;;;;;;5064095;28;20052;-87
2023/12/13 08:28:15;;;;;;;1999.90;999.90;;;;;;;;;;5062069;28;20488;-87
2023/12/13 08:30:41;;;;;;;1999.90;999.90;;;;;;;;;;5065121;28;20067;-87
2023/12/13 08:33:08;;;;;;;1999.90;999.90;;;;;;;;;;5059184;28;20049;-86
2023/12/13 08:35:34;;;;;;;1999.90;999.90;;;;;;;;;;5061467;28;20048;-87
2023/12/13 08:38:01;;;;;;;1999.90;999.90;;;;;;;;;;5065403;28;20052;-87
2023/12/13 08:40:30;;;;;;;1999.90;999.90;;;;;;;;;;5057296;28;20052;-87
2023/12/13 08:42:56;;;;;;;1999.90;999.90;;;;;;;;;;5065882;28;20505;-88
2023/12/13 08:45:23;;;;;;;1999.90;999.90;;;;;;;;;;5058925;28;20040;-87
2023/12/13 08:47:50;;;;;;;1999.90;999.90;;;;;;;;;;5062027;28;20131;-88
2023/12/13 08:50:16;;;;;;;1999.90;999.90;;;;;;;;;;5062300;28;20608;-87
2023/12/13 08:52:43;;;;;;;1999.90;999.90;;;;;;;;;;5057269;28;20055;-87
2023/12/13 08:55:09;;;;;;;1999.90;999.90;;;;;;;;;;5064198;28;20060;-87
2023/12/13 08:57:37;;;;;;;1999.90;999.90;;;;;;;;;;5060133;28;20041;-86
2023/12/13 09:00:05;;;;;;;1999.90;999.90;;;;;;;;;;5068299;28;20056;-86
2023/12/13 09:02:33;;;;;;;1999.90;999.90;;;;;;;;;;5063755;28;20040;-86
2023/12/13 09:05:00;;;;;;;1999.90;999.90;;;;;;;;;;5059731;28;20044;-86
2023/12/13 09:07:27;;;;;;;1999.90;999.90;;;;;;;;;;5063314;28;20143;-86
2023/12/13 09:09:53;;;;;;;1999.90;999.90;;;;;;;;;;5061957;28;20044;-86
2023/12/13 09:12:19;;;;;;;1999.90;999.90;;;;;;;;;;5064515;28;20044;-86
2023/12/13 09:14:47;;;;;;;1999.90;999.90;;;;;;;;;;5067394;28;20040;-89
2023/12/13 09:17:14;;;;;;;1999.90;999.90;;;;;;;;;;5063525;28;20068;-87
2023/12/13 09:19:40;;;;;;;1999.90;999.90;;;;;;;;;;5063784;28;20153;-87
2023/12/13 09:22:07;;;;;;;1999.90;999.90;;;;;;;;;;5062701;28;20056;-86
2023/12/13 09:24:34;;;;;;;1999.90;999.90;;;;;;;;;;5063981;28;20067;-87
2023/12/13 09:27:00;;;;;;;1999.90;999.90;;;;;;;;;;5063870;28;20047;-86
2023/12/13 09:29:27;;;;;;;1999.90;999.90;;;;;;;;;;5063625;28;20048;-86
2023/12/13 09:31:55;;;;;;;1999.90;999.90;;;;;;;;;;5065616;28;20060;-87
2023/12/13 09:34:21;;;;;;;1999.90;999.90;;;;;;;;;;5061837;28;20047;-86
2023/12/13 09:36:48;;;;;;;1999.90;999.90;;;;;;;;;;5064514;28;20049;-87
2023/12/13 09:39:18;;;;;;;1999.90;999.90;;;;;;;;;;5056766;28;20056;-86
2023/12/13 09:41:52;;;;;;;1999.90;999.90;;;;;;;;;;5065090;28;20615;-87
2023/12/13 09:44:20;;;;;;;1999.90;999.90;;;;;;;;;;5063802;28;20047;-86
2023/12/13 09:46:47;;;;;;;1999.90;999.90;;;;;;;;;;5062349;28;20056;-86
2023/12/13 09:49:15;;;;;;;1999.90;999.90;;;;;;;;;;5065114;28;20048;-87
2023/12/13 09:51:44;;;;;;;1999.90;999.90;;;;;;;;;;5064259;28;20049;-86
2023/12/13 09:54:11;;;;;;;1999.90;999.90;;;;;;;;;;5061493;28;20139;-87
2023/12/13 09:56:37;;;;;;;1999.90;999.90;;;;;;;;;;5067142;28;20047;-87
2023/12/13 09:59:04;;;;;;;1999.90;999.90;;;;;;;;;;5061526;28;20501;-87
2023/12/13 10:01:30;;;;;;;1999.90;999.90;;;;;;;;;;5063672;28;20138;-86
2023/12/13 10:03:57;;;;;;;1999.90;999.90;;;;;;;;;;5059301;28;20047;-86
2023/12/13 10:06:25;;;;;;;1999.90;999.90;;;;;;;;;;5067099;28;20069;-87
2023/12/13 10:08:55;;;;;;;1999.90;999.90;;;;;;;;;;5063880;28;20148;-86
2023/12/13 10:11:22;;;;;;;1999.90;999.90;;;;;;;;;;5063021;28;20044;-86
2023/12/13 10:13:48;;;;;;;1999.90;999.90;;;;;;;;;;5058782;28;20471;-87
2023/12/13 10:16:16;;;;;;;1999.90;999.90;;;;;;;;;;5068005;28;20076;-87
2023/12/13 10:18:43;;;;;;;1999.90;999.90;;;;;;;;;;5061485;28;20055;-87
2023/12/13 10:21:09;;;;;;;1999.90;999.90;;;;;;;;;;5063100;28;20048;-86
2023/12/13 10:23:37;;;;;;;1999.90;999.90;;;;;;;;;;5063778;28;20490;-87
2023/12/13 10:26:06;;;;;;;1999.90;999.90;;;;;;;;;;5065924;28;20054;-87
2023/12/13 10:28:34;;;;;;;1999.90;999.90;;;;;;;;;;5068023;28;20251;-86
2023/12/13 10:31:00;;;;;;;1999.90;999.90;;;;;;;;;;5066082;28;20040;-87
2023/12/13 10:33:27;;;;;;;1999.90;999.90;;;;;;;;;;5062039;28;20127;-86
2023/12/13 10:35:54;;;;;;;1999.90;999.90;;;;;;;;;;5068320;28;20406;-86
2023/12/13 10:38:23;;;;;;;1999.90;999.90;;;;;;;;;;5063983;28;20690;-86
2023/12/13 10:40:51;;;;;;;1999.90;999.90;;;;;;;;;;5064400;28;20128;-87
2023/12/13 10:43:18;;;;;;;1999.90;999.90;;;;;;;;;;5062437;28;20051;-86
2023/12/13 10:45:47;;;;;;;1999.90;999.90;;;;;;;;;;5064105;28;20049;-86
2023/12/13 10:48:17;;;;;;;1999.90;999.90;;;;;;;;;;5063363;28;20053;-86
2023/12/13 10:50:44;;;;;;;1999.90;999.90;;;;;;;;;;5062161;28;20051;-86
2023/12/13 10:53:11;;;;;;;1999.90;999.90;;;;;;;;;;5064145;28;20049;-87
2023/12/13 10:55:39;;;;;;;1999.90;999.90;;;;;;;;;;5062886;28;20513;-87
2023/12/13 10:58:07;;;;;;;1999.90;999.90;;;;;;;;;;5062505;28;20436;-86
2023/12/13 11:00:34;;;;;;;1999.90;999.90;;;;;;;;;;5061175;28;20048;-87
2023/12/13 11:03:03;;;;;;;1999.90;999.90;;;;;;;;;;5062401;28;20051;-86
2023/12/13 11:05:30;;;;;;;1999.90;999.90;;;;;;;;;;5065218;28;20053;-86
2023/12/13 11:07:57;;;;;;;1999.90;999.90;;;;;;;;;;5059392;28;20049;-86
2023/12/13 11:10:23;;;;;;;1999.90;999.90;;;;;;;;;;5063428;28;20052;-86
2023/12/13 11:12:51;;;;;;;1999.90;999.90;;;;;;;;;;5062249;28;20040;-86
2023/12/13 11:15:20;;;;;;;1999.90;999.90;;;;;;;;;;5058707;28;20060;-87
2023/12/13 11:17:48;;;;;;;1999.90;999.90;;;;;;;;;;5064442;28;20052;-87
2023/12/13 11:20:15;;;;;;;1999.90;999.90;;;;;;;;;;5063157;28;20048;-87
2023/12/13 11:22:47;;;;;;;1999.90;999.90;;;;;;;;;;5061018;28;20040;-86
2023/12/13 11:25:14;;;;;;;1999.90;999.90;;;;;;;;;;5060702;28;20067;-87
2023/12/13 11:27:48;;;;;;;1999.90;999.90;;;;;;;;;;5058578;28;20053;-87
2023/12/13 11:30:17;;;;;;;1999.90;999.90;;;;;;;;;;5062591;28;20052;-87
2023/12/13 11:32:46;;;;;;;1999.90;999.90;;;;;;;;;;5059743;28;20041;-87
2023/12/13 11:35:14;;;;;;;1999.90;999.90;;;;;;;;;;5058816;28;20049;-86
2023/12/13 11:37:41;;;;;;;1999.90;999.90;;;;;;;;;;5057515;28;20052;-86
2023/12/13 11:40:09;;;;;;;1999.90;999.90;;;;;;;;;;5058895;28;20045;-87
2023/12/13 11:42:35;;;;;;;1999.90;999.90;;;;;;;;;;5064502;28;20470;-86
2023/12/13 11:45:02;;;;;;;1999.90;999.90;;;;;;;;;;5057013;28;20496;-86
2023/12/13 11:47:28;;;;;;;1999.90;999.90;;;;;;;;;;5061039;28;20045;-87
2023/12/13 11:49:56;;;;;;;1999.90;999.90;;;;;;;;;;5059907;28;20501;-86
2023/12/13 11:52:23;;;;;;;1999.90;999.90;;;;;;;;;;5061015;28;20044;-87
2023/12/13 11:54:50;;;;;;;1999.90;999.90;;;;;;;;;;5064687;28;20052;-87
2023/12/13 11:57:19;;;;;;;1999.90;999.90;;;;;;;;;;5065002;28;20063;-86
2023/12/13 11:59:47;;;;;;;1999.90;999.90;;;;;;;;;;5056370;28;20048;-86
2023/12/13 12:02:16;;;;;;;1999.90;999.90;;;;;;;;;;5061332;28;20437;-86
2023/12/13 12:04:43;;;;;;;1999.90;999.90;;;;;;;;;;5060645;28;20507;-87
2023/12/13 12:07:15;;;;;;;1999.90;999.90;;;;;;;;;;5059568;28;20409;-86
2023/12/13 12:09:42;;;;;;;1999.90;999.90;;;;;;;;;;5060507;28;20044;-87
2023/12/13 12:12:09;;;;;;;1999.90;999.90;;;;;;;;;;5057447;28;20052;-86
2023/12/13 12:14:36;;;;;;;1999.90;999.90;;;;;;;;;;5061762;28;20048;-86
2023/12/13 12:17:05;;;;;;;1999.90;999.90;;;;;;;;;;5061380;28;20052;-87
2023/12/13 12:19:31;;;;;;;1999.90;999.90;;;;;;;;;;5060432;28;20057;-86
2023/12/13 12:22:02;;;;;;;1999.90;999.90;;;;;;;;;;5055380;28;20049;-86
2023/12/13 12:24:30;;;;;;;1999.90;999.90;;;;;;;;;;5059927;28;20053;-87
2023/12/13 12:27:07;;;;;;;1999.90;999.90;;;;;;;;;;5067469;28;20241;-86
2023/12/13 12:29:34;;;;;;;1999.90;999.90;;;;;;;;;;5060359;28;20584;-87
2023/12/13 12:32:00;;;;;;;1999.90;999.90;;;;;;;;;;5063229;28;20404;-86
2023/12/13 12:34:27;;;;;;;1999.90;999.90;;;;;;;;;;5064247;28;20037;-87
2023/12/13 12:36:53;;;;;;;1999.90;999.90;;;;;;;;;;5060535;28;20067;-87
2023/12/13 12:39:20;;;;;;;1999.90;999.90;;;;;;;;;;5071863;28;20433;-87
2023/12/13 12:41:48;;;;;;;1999.90;999.90;;;;;;;;;;5060126;28;20052;-87
2023/12/13 12:44:15;;;;;;;1999.90;999.90;;;;;;;;;;5058576;28;20718;-87
2023/12/13 12:46:41;;;;;;;1999.90;999.90;;;;;;;;;;5062393;28;20047;-86
2023/12/13 12:49:08;;;;;;;1999.90;999.90;;;;;;;;;;5061506;28;20136;-87
2023/12/13 12:51:34;;;;;;;1999.90;999.90;;;;;;;;;;5062434;28;20118;-87
2023/12/13 12:54:01;;;;;;;1999.90;999.90;;;;;;;;;;5055768;28;20053;-87
2023/12/13 12:56:27;;;;;;;1999.90;999.90;;;;;;;;;;5063262;28;20044;-87
2023/12/13 12:58:55;;;;;;;1999.90;999.90;;;;;;;;;;5062767;28;20049;-87
2023/12/13 13:01:22;;;;;;;1999.90;999.90;;;;;;;;;;5063757;28;20048;-87
2023/12/13 13:03:50;;;;;;;1999.90;999.90;;;;;;;;;;5060251;28;20076;-87
2023/12/13 13:06:17;;;;;;;1999.90;999.90;;;;;;;;;;5058388;28;20090;-87
2023/12/13 13:08:43;;;;;;;1999.90;999.90;;;;;;;;;;5061319;28;20066;-86
2023/12/13 13:11:10;;;;;;;1999.90;999.90;;;;;;;;;;5060303;28;20041;-85
2023/12/13 13:13:36;;;;;;;1999.90;999.90;;;;;;;;;;5058515;28;20567;-86
2023/12/13 13:16:05;;;;;;;1999.90;999.90;;;;;;;;;;5061925;28;20045;-86
2023/12/13 13:18:32;;;;;;;1999.90;999.90;;;;;;;;;;5061683;28;20041;-87
2023/12/13 13:21:00;;;;;;;1999.90;999.90;;;;;;;;;;5060779;28;20060;-88
2023/12/13 13:23:26;;;;;;;1999.90;999.90;;;;;;;;;;5061298;28;20090;-87
2023/12/13 13:25:53;;;;;;;1999.90;999.90;;;;;;;;;;5061100;28;20074;-87
2023/12/13 13:28:19;;;;;;;1999.90;999.90;;;;;;;;;;5067195;28;20045;-88
2023/12/13 13:30:46;;;;;;;1999.90;999.90;;;;;;;;;;5062224;28;20041;-88
2023/12/13 13:33:14;;;;;;;1999.90;999.90;;;;;;;;;;5057839;28;20049;-87
2023/12/13 13:35:41;;;;;;;1999.90;999.90;;;;;;;;;;5065448;28;20053;-88
2023/12/13 13:38:06;;;;;;;1999.90;999.90;;;;;;;;;;5058860;28;20047;-88
2023/12/13 13:40:33;;;;;;;1999.90;999.90;;;;;;;;;;5055790;28;20045;-87